AKST,Max TemperatureF,Mean TemperatureF,Min TemperatureF,Max Dew PointF,MeanDew PointF,Min DewpointF,Max Humidity, Mean Humidity, Min Humidity, Max Sea Level PressureIn, Mean Sea Level PressureIn, Min Sea Level PressureIn, Max VisibilityMiles, Mean VisibilityMiles, Min VisibilityMiles, Max Wind SpeedMPH, Mean Wind SpeedMPH, Max Gust SpeedMPH,PrecipitationIn, CloudCover, Events, WindDirDegrees
2012-12-1,-16,-23,-29,-24,-29,-35,0,0,0,30.08,30.00,29.95,10,10,8,3,0,3,0.00,2,,-1
2012-12-2,-17,-25,-33,-23,-28,-36,0,0,0,30.04,29.95,29.87,10,9,2,6,0,7,T,4,Snow,245
2012-12-3,-4,-18,-31,-13,-16,-36,0,0,0,30.10,30.08,30.05,10,10,10,15,8,20,0.00,0,,20
2012-12-4,-4,-17,-29,-14,-18,-35,0,0,0,30.05,29.94,29.87,10,10,10,15,7,18,0.00,0,,29
2012-12-5,-19,-26,-33,-26,-31,-35,0,0,0,29.92,29.89,29.83,10,10,5,3,0,5,0.00,3,,-1
2012-12-6,-26,-30,-34,-33,-34,-36,0,0,0,30.14,30.04,29.94,10,9,4,2,0,3,0.00,0,,-1
2012-12-7,-24,-29,-34,-32,-34,-36,0,0,0,30.16,30.14,30.12,10,10,9,5,0,6,0.00,0,,320
2012-12-8,-1,-18,-35,-4,-11,-32,0,0,0,30.11,29.63,29.34,10,7,1,7,0,7,0.14,5,Snow,280
2012-12-9,8,4,-1,3,0,-4,0,0,0,29.56,29.43,29.33,10,4,1,6,1,9,0.14,8,Snow,34
2012-12-10,11,3,-5,7,4,-6,0,0,0,29.95,29.68,29.53,10,3,1,6,0,9,0.11,8,Snow,143
2012-12-11,16,8,-1,12,10,2,0,0,0,30.02,29.73,29.36,10,7,1,9,2,14,T,8,Snow,121
2012-12-12,35,25,15,30,22,10,0,0,0,29.34,29.15,29.06,10,4,0,22,8,33,0.47,8,Fog-Snow,193
2012-12-13,33,6,-21,28,4,-26,0,0,0,29.49,29.32,29.08,10,7,0,25,4,37,0.03,6,Fog-Snow,234
2012-12-14,-6,-16,-25,-11,-17,-31,0,0,0,29.58,29.46,29.41,10,8,2,12,5,15,0.03,6,Snow,298
2012-12-15,-19,-33,-47,-25,-27,-28,0,0,0,29.84,29.73,29.59,10,9,4,13,3,15,0.00,0,,299
2012-12-16,-38,-44,-49,,,,0,0,0,30.01,29.90,29.79,10,4,1,3,0,5,T,4,Snow,280
2012-12-17,-17,-31,-44,-24,-29,-34,0,0,0,30.01,29.79,29.48,9,3,0,6,0,6,0.08,7,Snow,172
2012-12-18,-2,-10,-17,-8,-15,-24,0,0,0,30.01,29.63,29.43,5,2,1,9,0,12,0.21,8,Snow,341
2012-12-19,-3,-22,-40,-10,-23,-35,0,0,0,30.58,30.36,30.05,10,10,4,12,3,16,T,2,Snow,340
2012-12-20,-37,-42,-46,,,,0,0,0,30.68,30.60,30.53,10,6,1,6,0,6,0.00,0,,260
2012-12-21,-34,-40,-45,,,,0,0,0,30.56,30.41,30.26,10,10,10,5,0,6,0.00,0,,330
2012-12-22,-5,-26,-46,-13,-14,-15,0,0,0,30.25,30.08,29.94,10,10,3,15,2,20,0.00,0,,27
2012-12-23,-8,-23,-38,-26,-33,-36,0,0,0,29.95,29.87,29.77,10,10,10,7,1,9,0.00,0,,274
2012-12-24,-4,-22,-40,-12,-18,-32,0,0,0,29.76,29.62,29.53,10,10,10,7,1,8,0.00,3,,276
2012-12-25,5,-2,-8,-2,-6,-15,0,0,0,29.70,29.62,29.49,10,7,1,5,0,7,0.03,8,Snow,-1
2012-12-26,10,2,-7,3,-5,-14,0,0,0,29.69,29.50,29.33,10,7,0,5,1,6,T,7,Fog-Snow,295
2012-12-27,14,5,-5,7,-2,-11,0,0,0,29.46,29.38,29.32,10,10,9,5,0,6,0.00,5,,-1
2012-12-28,8,-1,-10,3,-4,-16,0,0,0,29.54,29.49,29.34,10,10,10,6,0,6,0.00,5,,343
2012-12-29,23,17,10,16,11,4,0,0,0,29.39,29.29,29.14,10,8,1,8,3,13,T,7,Snow,260
2012-12-30,28,22,16,23,18,12,0,0,0,29.24,28.99,28.89,10,10,10,14,2,20,0.00,7,,239
2012-12-31,45,31,16,25,21,8,0,0,0,29.61,29.47,29.16,10,10,10,10,2,16,T,6,Fog,266